logo
Search for airport 
image banner adimage banner adimage banner ad
image banner ad

FLMV - Mkushi River

Located in Mkushi River, Zambia

ICAO - , IATA -

Data provided by Airmate  

General information

Coordinates: S13°37'4" E29°38'31"
Elevation is 4479 feet MSL.
Magnetic variation is -4° East
View others Airports in Central Province

Operational data

Special qualification required
Current time UTC:
Current local time:
Weather at : - ( 0 km )
METAR: SBBE 202310Z 14011KT 2000 TSRA SCT007 BKN020 FEW025CB 26/25 Q1012
View NOTAMs / SUP AIP / TFR affecting this airport [VIEW]
Communications frequencies: [VIEW]

Runways:

RWY identifierQFULength (ft)Width (ft)SurfaceLDA (ft)
0215°496068DIRT
20195°496068DIRT

Airport contact information

Address: Mkushi River Zambia

Satellite view of FLMV